University Park, Florida
Current Conditions -  °F | °C
As of 2:53 AM on Tuesday 21 Oct 2014 (Local Time) from KSRQ Reporting Station
Clear Clear  
Wind Chill: 72°   Ceiling: Unl
Heat Index: 72°   Visibility: 10mi
Dew Point: 64°   Wind: 3mph
Humidity: 76%   Direction: 30°NNE
Pressure: 29.92"   Gusts: NA
Location:  27.3998°N, 82.4742°W
Report Text: KSRQ 210653Z 03003KT 10SM CLR 22/18 A2992 RMK AO2 SLP129 T02220178
Loading
Personal Weather Stations






























Interactive Weather Map
Tropical Storm Tracking
New forecast layout! Learn more

10-Day Weather Forecast

Advertisements
Track Severe Weather on mobile